sensor_id;sensor_type;location;lat;lon;timestamp;P1;durP1;ratioP1;P2;durP2;ratioP2
17991;SDS011;9121;50.926;5.340;2023-02-28T00:02:25;14.30;;;6.07;;
17991;SDS011;9121;50.926;5.340;2023-02-28T00:04:52;10.13;;;5.37;;
17991;SDS011;9121;50.926;5.340;2023-02-28T00:07:26;9.07;;;5.33;;
17991;SDS011;9121;50.926;5.340;2023-02-28T00:09:53;11.57;;;6.07;;
17991;SDS011;9121;50.926;5.340;2023-02-28T00:12:20;9.80;;;4.93;;
17991;SDS011;9121;50.926;5.340;2023-02-28T00:14:47;11.13;;;5.70;;
17991;SDS011;9121;50.926;5.340;2023-02-28T00:17:16;14.00;;;5.77;;
17991;SDS011;9121;50.926;5.340;2023-02-28T00:19:46;11.67;;;5.53;;
17991;SDS011;9121;50.926;5.340;2023-02-28T00:22:14;9.93;;;5.50;;
17991;SDS011;9121;50.926;5.340;2023-02-28T00:24:41;9.90;;;5.60;;
17991;SDS011;9121;50.926;5.340;2023-02-28T00:27:08;13.10;;;7.00;;
17991;SDS011;9121;50.926;5.340;2023-02-28T00:29:35;10.63;;;5.53;;
17991;SDS011;9121;50.926;5.340;2023-02-28T00:32:03;11.27;;;5.90;;
17991;SDS011;9121;50.926;5.340;2023-02-28T00:34:32;9.27;;;5.30;;
17991;SDS011;9121;50.926;5.340;2023-02-28T00:37:02;19.57;;;5.97;;
17991;SDS011;9121;50.926;5.340;2023-02-28T00:39:30;16.67;;;6.10;;
17991;SDS011;9121;50.926;5.340;2023-02-28T00:41:59;7.83;;;5.20;;
17991;SDS011;9121;50.926;5.340;2023-02-28T00:44:26;11.53;;;5.90;;
17991;SDS011;9121;50.926;5.340;2023-02-28T00:46:53;9.90;;;5.57;;
17991;SDS011;9121;50.926;5.340;2023-02-28T00:49:21;11.27;;;6.23;;
17991;SDS011;9121;50.926;5.340;2023-02-28T00:51:50;14.17;;;6.30;;
17991;SDS011;9121;50.926;5.340;2023-02-28T00:54:17;12.07;;;5.67;;
17991;SDS011;9121;50.926;5.340;2023-02-28T00:56:44;12.10;;;5.97;;
17991;SDS011;9121;50.926;5.340;2023-02-28T00:59:12;10.93;;;5.50;;
17991;SDS011;9121;50.926;5.340;2023-02-28T01:01:39;11.70;;;5.80;;
17991;SDS011;9121;50.926;5.340;2023-02-28T01:04:06;11.50;;;6.20;;
17991;SDS011;9121;50.926;5.340;2023-02-28T01:06:33;14.43;;;5.80;;
17991;SDS011;9121;50.926;5.340;2023-02-28T01:09:02;11.70;;;5.83;;
17991;SDS011;9121;50.926;5.340;2023-02-28T01:11:30;12.27;;;5.83;;
17991;SDS011;9121;50.926;5.340;2023-02-28T01:13:57;12.47;;;6.10;;
17991;SDS011;9121;50.926;5.340;2023-02-28T01:16:25;11.60;;;5.97;;
17991;SDS011;9121;50.926;5.340;2023-02-28T01:18:52;12.27;;;6.30;;
17991;SDS011;9121;50.926;5.340;2023-02-28T01:21:20;11.43;;;6.00;;
17991;SDS011;9121;50.926;5.340;2023-02-28T01:23:48;10.90;;;5.90;;
17991;SDS011;9121;50.926;5.340;2023-02-28T01:26:18;14.33;;;5.63;;
17991;SDS011;9121;50.926;5.340;2023-02-28T01:28:47;10.73;;;5.60;;
17991;SDS011;9121;50.926;5.340;2023-02-28T01:31:14;9.17;;;6.53;;
17991;SDS011;9121;50.926;5.340;2023-02-28T01:33:43;14.47;;;6.00;;
17991;SDS011;9121;50.926;5.340;2023-02-28T01:36:11;9.03;;;5.53;;
17991;SDS011;9121;50.926;5.340;2023-02-28T01:38:40;11.33;;;6.10;;
17991;SDS011;9121;50.926;5.340;2023-02-28T01:41:08;13.43;;;6.30;;
17991;SDS011;9121;50.926;5.340;2023-02-28T01:43:53;10.07;;;5.57;;
17991;SDS011;9121;50.926;5.340;2023-02-28T01:46:22;11.03;;;5.80;;
17991;SDS011;9121;50.926;5.340;2023-02-28T01:48:50;10.83;;;5.70;;
17991;SDS011;9121;50.926;5.340;2023-02-28T01:51:21;10.87;;;6.10;;
17991;SDS011;9121;50.926;5.340;2023-02-28T01:53:53;12.87;;;6.33;;
17991;SDS011;9121;50.926;5.340;2023-02-28T01:56:25;17.87;;;6.13;;
17991;SDS011;9121;50.926;5.340;2023-02-28T01:58:57;11.67;;;6.30;;
17991;SDS011;9121;50.926;5.340;2023-02-28T02:01:25;13.30;;;6.47;;
17991;SDS011;9121;50.926;5.340;2023-02-28T02:03:54;12.30;;;6.37;;
17991;SDS011;9121;50.926;5.340;2023-02-28T02:06:24;13.37;;;6.33;;
17991;SDS011;9121;50.926;5.340;2023-02-28T02:08:54;11.07;;;6.13;;
17991;SDS011;9121;50.926;5.340;2023-02-28T02:11:21;13.93;;;6.23;;
17991;SDS011;9121;50.926;5.340;2023-02-28T02:13:59;14.60;;;6.30;;
17991;SDS011;9121;50.926;5.340;2023-02-28T02:16:56;13.07;;;6.20;;
17991;SDS011;9121;50.926;5.340;2023-02-28T02:19:44;15.30;;;6.60;;
17991;SDS011;9121;50.926;5.340;2023-02-28T02:22:41;13.00;;;6.20;;
17991;SDS011;9121;50.926;5.340;2023-02-28T02:25:39;13.10;;;6.13;;
17991;SDS011;9121;50.926;5.340;2023-02-28T02:28:18;9.60;;;5.77;;
17991;SDS011;9121;50.926;5.340;2023-02-28T02:34:10;15.87;;;6.50;;
17991;SDS011;9121;50.926;5.340;2023-02-28T02:36:51;13.93;;;6.73;;
17991;SDS011;9121;50.926;5.340;2023-02-28T02:39:27;18.63;;;7.37;;
17991;SDS011;9121;50.926;5.340;2023-02-28T02:42:00;14.33;;;7.33;;
17991;SDS011;9121;50.926;5.340;2023-02-28T02:44:30;13.23;;;7.30;;
17991;SDS011;9121;50.926;5.340;2023-02-28T02:47:03;12.57;;;6.90;;
17991;SDS011;9121;50.926;5.340;2023-02-28T02:49:36;13.50;;;7.10;;
17991;SDS011;9121;50.926;5.340;2023-02-28T02:52:06;14.20;;;6.63;;
17991;SDS011;9121;50.926;5.340;2023-02-28T02:54:35;12.33;;;7.70;;
17991;SDS011;9121;50.926;5.340;2023-02-28T02:57:05;15.23;;;7.17;;
17991;SDS011;9121;50.926;5.340;2023-02-28T02:59:37;17.47;;;7.37;;
17991;SDS011;9121;50.926;5.340;2023-02-28T03:02:06;14.93;;;6.70;;
17991;SDS011;9121;50.926;5.340;2023-02-28T03:04:38;15.43;;;7.27;;
17991;SDS011;9121;50.926;5.340;2023-02-28T03:07:09;13.07;;;6.93;;
17991;SDS011;9121;50.926;5.340;2023-02-28T03:09:36;12.97;;;6.73;;
17991;SDS011;9121;50.926;5.340;2023-02-28T03:12:04;11.80;;;7.20;;
17991;SDS011;9121;50.926;5.340;2023-02-28T03:14:40;17.73;;;7.10;;
17991;SDS011;9121;50.926;5.340;2023-02-28T03:17:24;14.53;;;7.87;;
17991;SDS011;9121;50.926;5.340;2023-02-28T03:20:03;11.20;;;6.77;;
17991;SDS011;9121;50.926;5.340;2023-02-28T03:22:43;14.63;;;7.00;;
17991;SDS011;9121;50.926;5.340;2023-02-28T03:25:18;12.43;;;6.80;;
17991;SDS011;9121;50.926;5.340;2023-02-28T03:27:55;12.13;;;7.20;;
17991;SDS011;9121;50.926;5.340;2023-02-28T03:30:33;14.73;;;7.00;;
17991;SDS011;9121;50.926;5.340;2023-02-28T03:33:06;13.30;;;6.80;;
17991;SDS011;9121;50.926;5.340;2023-02-28T03:35:38;16.07;;;7.47;;
17991;SDS011;9121;50.926;5.340;2023-02-28T03:38:10;17.43;;;7.23;;
17991;SDS011;9121;50.926;5.340;2023-02-28T03:40:43;14.87;;;7.30;;
17991;SDS011;9121;50.926;5.340;2023-02-28T03:43:15;10.87;;;6.70;;
17991;SDS011;9121;50.926;5.340;2023-02-28T03:45:48;11.50;;;6.73;;
17991;SDS011;9121;50.926;5.340;2023-02-28T03:48:19;14.80;;;7.80;;
17991;SDS011;9121;50.926;5.340;2023-02-28T03:50:52;14.53;;;6.90;;
17991;SDS011;9121;50.926;5.340;2023-02-28T03:53:22;14.03;;;6.83;;
17991;SDS011;9121;50.926;5.340;2023-02-28T03:55:53;17.87;;;7.53;;
17991;SDS011;9121;50.926;5.340;2023-02-28T03:58:27;14.70;;;7.10;;
17991;SDS011;9121;50.926;5.340;2023-02-28T04:00:59;13.87;;;7.33;;
17991;SDS011;9121;50.926;5.340;2023-02-28T04:03:33;12.13;;;7.00;;
17991;SDS011;9121;50.926;5.340;2023-02-28T04:06:02;13.17;;;7.60;;
17991;SDS011;9121;50.926;5.340;2023-02-28T04:08:30;12.40;;;7.47;;
17991;SDS011;9121;50.926;5.340;2023-02-28T04:10:58;16.93;;;7.67;;
17991;SDS011;9121;50.926;5.340;2023-02-28T04:13:31;13.67;;;7.43;;
17991;SDS011;9121;50.926;5.340;2023-02-28T04:15:57;16.97;;;8.00;;
17991;SDS011;9121;50.926;5.340;2023-02-28T04:18:24;15.87;;;8.07;;
17991;SDS011;9121;50.926;5.340;2023-02-28T04:20:51;22.70;;;8.27;;
17991;SDS011;9121;50.926;5.340;2023-02-28T04:23:20;13.20;;;7.47;;
17991;SDS011;9121;50.926;5.340;2023-02-28T04:25:47;14.43;;;7.30;;
17991;SDS011;9121;50.926;5.340;2023-02-28T04:28:16;13.27;;;7.90;;
17991;SDS011;9121;50.926;5.340;2023-02-28T04:30:43;12.87;;;7.27;;
17991;SDS011;9121;50.926;5.340;2023-02-28T04:33:10;16.73;;;7.73;;
17991;SDS011;9121;50.926;5.340;2023-02-28T04:35:36;14.53;;;7.77;;
17991;SDS011;9121;50.926;5.340;2023-02-28T04:38:03;16.10;;;7.30;;
17991;SDS011;9121;50.926;5.340;2023-02-28T04:40:32;14.90;;;8.27;;
17991;SDS011;9121;50.926;5.340;2023-02-28T04:42:59;12.67;;;7.77;;
17991;SDS011;9121;50.926;5.340;2023-02-28T04:45:25;15.23;;;8.07;;
17991;SDS011;9121;50.926;5.340;2023-02-28T04:47:55;14.83;;;8.20;;
17991;SDS011;9121;50.926;5.340;2023-02-28T04:50:22;17.03;;;8.00;;
17991;SDS011;9121;50.926;5.340;2023-02-28T04:52:49;34.40;;;8.57;;
17991;SDS011;9121;50.926;5.340;2023-02-28T04:55:16;14.40;;;7.50;;
17991;SDS011;9121;50.926;5.340;2023-02-28T04:57:44;19.13;;;8.00;;
17991;SDS011;9121;50.926;5.340;2023-02-28T05:00:11;14.30;;;7.77;;
17991;SDS011;9121;50.926;5.340;2023-02-28T05:02:42;11.57;;;7.30;;
17991;SDS011;9121;50.926;5.340;2023-02-28T05:05:09;11.50;;;7.33;;
17991;SDS011;9121;50.926;5.340;2023-02-28T05:07:37;16.97;;;7.83;;
17991;SDS011;9121;50.926;5.340;2023-02-28T05:10:04;15.43;;;7.50;;
17991;SDS011;9121;50.926;5.340;2023-02-28T05:12:31;15.57;;;8.07;;
17991;SDS011;9121;50.926;5.340;2023-02-28T05:15:00;15.87;;;8.83;;
17991;SDS011;9121;50.926;5.340;2023-02-28T05:17:27;21.90;;;8.43;;
17991;SDS011;9121;50.926;5.340;2023-02-28T05:19:54;16.00;;;7.63;;
17991;SDS011;9121;50.926;5.340;2023-02-28T05:22:21;17.90;;;8.17;;
17991;SDS011;9121;50.926;5.340;2023-02-28T05:24:48;20.87;;;8.87;;
17991;SDS011;9121;50.926;5.340;2023-02-28T05:27:15;15.50;;;7.67;;
17991;SDS011;9121;50.926;5.340;2023-02-28T05:29:42;20.27;;;8.23;;
17991;SDS011;9121;50.926;5.340;2023-02-28T05:32:10;12.93;;;7.77;;
17991;SDS011;9121;50.926;5.340;2023-02-28T05:34:38;13.10;;;7.67;;
17991;SDS011;9121;50.926;5.340;2023-02-28T05:37:05;23.40;;;9.37;;
17991;SDS011;9121;50.926;5.340;2023-02-28T05:39:33;26.03;;;9.00;;
17991;SDS011;9121;50.926;5.340;2023-02-28T05:41:59;18.33;;;8.40;;
17991;SDS011;9121;50.926;5.340;2023-02-28T05:44:26;15.20;;;7.77;;
17991;SDS011;9121;50.926;5.340;2023-02-28T05:46:53;20.80;;;8.63;;
17991;SDS011;9121;50.926;5.340;2023-02-28T05:49:22;25.33;;;8.47;;
17991;SDS011;9121;50.926;5.340;2023-02-28T05:51:49;64.10;;;11.10;;
17991;SDS011;9121;50.926;5.340;2023-02-28T05:54:16;15.30;;;8.57;;
17991;SDS011;9121;50.926;5.340;2023-02-28T05:56:43;21.13;;;8.03;;
17991;SDS011;9121;50.926;5.340;2023-02-28T05:59:10;21.10;;;8.13;;
17991;SDS011;9121;50.926;5.340;2023-02-28T06:01:39;15.40;;;7.50;;
17991;SDS011;9121;50.926;5.340;2023-02-28T06:04:07;16.33;;;8.17;;
17991;SDS011;9121;50.926;5.340;2023-02-28T06:06:37;17.57;;;8.30;;
17991;SDS011;9121;50.926;5.340;2023-02-28T06:09:04;15.47;;;7.30;;
17991;SDS011;9121;50.926;5.340;2023-02-28T06:11:31;20.47;;;8.80;;
17991;SDS011;9121;50.926;5.340;2023-02-28T06:13:59;19.93;;;8.30;;
17991;SDS011;9121;50.926;5.340;2023-02-28T06:16:27;21.40;;;9.07;;
17991;SDS011;9121;50.926;5.340;2023-02-28T06:18:56;47.40;;;11.43;;
17991;SDS011;9121;50.926;5.340;2023-02-28T06:21:24;42.33;;;10.73;;
17991;SDS011;9121;50.926;5.340;2023-02-28T06:23:53;20.43;;;8.03;;
17991;SDS011;9121;50.926;5.340;2023-02-28T06:26:21;18.33;;;8.17;;
17991;SDS011;9121;50.926;5.340;2023-02-28T06:28:48;19.93;;;9.20;;
17991;SDS011;9121;50.926;5.340;2023-02-28T06:31:16;87.93;;;14.53;;
17991;SDS011;9121;50.926;5.340;2023-02-28T06:33:44;99.23;;;12.10;;
17991;SDS011;9121;50.926;5.340;2023-02-28T06:36:12;47.47;;;13.03;;
17991;SDS011;9121;50.926;5.340;2023-02-28T06:38:41;56.63;;;13.60;;
17991;SDS011;9121;50.926;5.340;2023-02-28T06:41:10;12.93;;;7.20;;
17991;SDS011;9121;50.926;5.340;2023-02-28T06:43:38;29.20;;;9.37;;
17991;SDS011;9121;50.926;5.340;2023-02-28T06:46:07;16.17;;;7.17;;
17991;SDS011;9121;50.926;5.340;2023-02-28T06:48:38;32.90;;;8.53;;
17991;SDS011;9121;50.926;5.340;2023-02-28T06:51:06;17.73;;;7.77;;
17991;SDS011;9121;50.926;5.340;2023-02-28T06:53:35;25.87;;;8.47;;
17991;SDS011;9121;50.926;5.340;2023-02-28T06:56:05;16.60;;;7.53;;
17991;SDS011;9121;50.926;5.340;2023-02-28T06:58:35;17.17;;;7.50;;
17991;SDS011;9121;50.926;5.340;2023-02-28T07:01:03;17.93;;;8.17;;
17991;SDS011;9121;50.926;5.340;2023-02-28T07:03:30;16.30;;;7.40;;
17991;SDS011;9121;50.926;5.340;2023-02-28T07:05:58;14.77;;;8.17;;
17991;SDS011;9121;50.926;5.340;2023-02-28T07:08:26;19.57;;;7.77;;
17991;SDS011;9121;50.926;5.340;2023-02-28T07:10:53;16.40;;;7.37;;
17991;SDS011;9121;50.926;5.340;2023-02-28T07:13:20;13.80;;;7.83;;
17991;SDS011;9121;50.926;5.340;2023-02-28T07:15:54;13.50;;;7.33;;
17991;SDS011;9121;50.926;5.340;2023-02-28T07:18:22;15.70;;;6.93;;
17991;SDS011;9121;50.926;5.340;2023-02-28T07:20:49;15.13;;;7.17;;
17991;SDS011;9121;50.926;5.340;2023-02-28T07:23:16;14.23;;;7.60;;
17991;SDS011;9121;50.926;5.340;2023-02-28T07:25:43;17.50;;;6.97;;
17991;SDS011;9121;50.926;5.340;2023-02-28T07:28:11;17.10;;;7.63;;
17991;SDS011;9121;50.926;5.340;2023-02-28T07:30:38;19.43;;;8.17;;
17991;SDS011;9121;50.926;5.340;2023-02-28T07:33:07;22.23;;;7.13;;
17991;SDS011;9121;50.926;5.340;2023-02-28T07:35:34;15.17;;;6.80;;
17991;SDS011;9121;50.926;5.340;2023-02-28T07:38:02;15.10;;;7.33;;
17991;SDS011;9121;50.926;5.340;2023-02-28T07:40:29;16.30;;;6.40;;
17991;SDS011;9121;50.926;5.340;2023-02-28T07:42:56;17.23;;;7.20;;
17991;SDS011;9121;50.926;5.340;2023-02-28T07:45:25;13.03;;;7.10;;
17991;SDS011;9121;50.926;5.340;2023-02-28T07:47:54;18.50;;;7.93;;
17991;SDS011;9121;50.926;5.340;2023-02-28T07:50:22;20.57;;;7.80;;
17991;SDS011;9121;50.926;5.340;2023-02-28T07:52:50;22.53;;;7.30;;
17991;SDS011;9121;50.926;5.340;2023-02-28T07:55:17;15.03;;;7.33;;
17991;SDS011;9121;50.926;5.340;2023-02-28T07:57:44;27.90;;;8.33;;
17991;SDS011;9121;50.926;5.340;2023-02-28T08:00:11;21.30;;;7.07;;
17991;SDS011;9121;50.926;5.340;2023-02-28T08:02:39;16.00;;;7.20;;
17991;SDS011;9121;50.926;5.340;2023-02-28T08:05:06;12.50;;;6.33;;
17991;SDS011;9121;50.926;5.340;2023-02-28T08:07:35;13.60;;;5.67;;
17991;SDS011;9121;50.926;5.340;2023-02-28T08:10:02;13.17;;;5.73;;
17991;SDS011;9121;50.926;5.340;2023-02-28T08:12:30;16.30;;;6.00;;
17991;SDS011;9121;50.926;5.340;2023-02-28T08:14:57;13.37;;;5.67;;
17991;SDS011;9121;50.926;5.340;2023-02-28T08:17:24;14.60;;;5.90;;
17991;SDS011;9121;50.926;5.340;2023-02-28T08:19:51;9.87;;;5.17;;
17991;SDS011;9121;50.926;5.340;2023-02-28T08:22:18;14.43;;;5.57;;
17991;SDS011;9121;50.926;5.340;2023-02-28T08:24:46;14.73;;;5.43;;
17991;SDS011;9121;50.926;5.340;2023-02-28T08:27:14;20.63;;;5.63;;
17991;SDS011;9121;50.926;5.340;2023-02-28T08:29:41;9.73;;;5.07;;
17991;SDS011;9121;50.926;5.340;2023-02-28T08:32:08;13.37;;;5.33;;
17991;SDS011;9121;50.926;5.340;2023-02-28T08:34:35;11.07;;;5.30;;
17991;SDS011;9121;50.926;5.340;2023-02-28T08:37:02;15.63;;;4.97;;
17991;SDS011;9121;50.926;5.340;2023-02-28T08:39:28;13.70;;;4.30;;
17991;SDS011;9121;50.926;5.340;2023-02-28T08:41:57;14.10;;;5.50;;
17991;SDS011;9121;50.926;5.340;2023-02-28T08:44:24;18.90;;;5.60;;
17991;SDS011;9121;50.926;5.340;2023-02-28T08:46:52;15.83;;;5.23;;
17991;SDS011;9121;50.926;5.340;2023-02-28T08:49:19;16.17;;;5.43;;
17991;SDS011;9121;50.926;5.340;2023-02-28T08:51:46;26.17;;;6.33;;
17991;SDS011;9121;50.926;5.340;2023-02-28T08:54:13;9.73;;;5.13;;
17991;SDS011;9121;50.926;5.340;2023-02-28T08:56:44;11.97;;;4.20;;
17991;SDS011;9121;50.926;5.340;2023-02-28T08:59:13;8.93;;;4.27;;
17991;SDS011;9121;50.926;5.340;2023-02-28T09:01:40;12.37;;;4.40;;
17991;SDS011;9121;50.926;5.340;2023-02-28T09:04:08;7.93;;;4.40;;
17991;SDS011;9121;50.926;5.340;2023-02-28T09:06:36;14.10;;;4.77;;
17991;SDS011;9121;50.926;5.340;2023-02-28T09:09:03;14.97;;;4.93;;
17991;SDS011;9121;50.926;5.340;2023-02-28T09:11:32;8.60;;;4.40;;
17991;SDS011;9121;50.926;5.340;2023-02-28T09:14:00;9.93;;;3.90;;
17991;SDS011;9121;50.926;5.340;2023-02-28T09:16:30;8.10;;;4.27;;
17991;SDS011;9121;50.926;5.340;2023-02-28T09:18:58;13.63;;;3.93;;
17991;SDS011;9121;50.926;5.340;2023-02-28T09:21:25;12.47;;;3.80;;
17991;SDS011;9121;50.926;5.340;2023-02-28T09:23:52;7.83;;;3.57;;
17991;SDS011;9121;50.926;5.340;2023-02-28T09:26:20;15.83;;;3.57;;
17991;SDS011;9121;50.926;5.340;2023-02-28T09:28:49;13.77;;;3.10;;
17991;SDS011;9121;50.926;5.340;2023-02-28T09:31:18;11.50;;;3.50;;
17991;SDS011;9121;50.926;5.340;2023-02-28T09:33:48;9.03;;;2.97;;
17991;SDS011;9121;50.926;5.340;2023-02-28T09:36:16;8.27;;;2.73;;
17991;SDS011;9121;50.926;5.340;2023-02-28T09:38:44;5.85;;;2.92;;
17991;SDS011;9121;50.926;5.340;2023-02-28T09:41:13;6.97;;;2.53;;
17991;SDS011;9121;50.926;5.340;2023-02-28T09:43:43;24.77;;;4.17;;
17991;SDS011;9121;50.926;5.340;2023-02-28T09:46:14;90.37;;;7.23;;
17991;SDS011;9121;50.926;5.340;2023-02-28T09:48:52;3.83;;;2.57;;
17991;SDS011;9121;50.926;5.340;2023-02-28T09:51:30;88.30;;;5.70;;
17991;SDS011;9121;50.926;5.340;2023-02-28T09:54:04;26.87;;;3.87;;
17991;SDS011;9121;50.926;5.340;2023-02-28T09:56:34;7.20;;;2.80;;
17991;SDS011;9121;50.926;5.340;2023-02-28T09:59:05;34.83;;;4.43;;
17991;SDS011;9121;50.926;5.340;2023-02-28T10:01:43;8.60;;;2.10;;
17991;SDS011;9121;50.926;5.340;2023-02-28T10:04:22;26.40;;;3.67;;
17991;SDS011;9121;50.926;5.340;2023-02-28T10:07:01;14.13;;;3.20;;
17991;SDS011;9121;50.926;5.340;2023-02-28T10:09:34;10.60;;;3.60;;
17991;SDS011;9121;50.926;5.340;2023-02-28T10:12:03;6.43;;;2.87;;
17991;SDS011;9121;50.926;5.340;2023-02-28T10:14:32;12.50;;;2.77;;
17991;SDS011;9121;50.926;5.340;2023-02-28T10:17:01;52.40;;;5.23;;
17991;SDS011;9121;50.926;5.340;2023-02-28T10:19:38;7.83;;;2.73;;
17991;SDS011;9121;50.926;5.340;2023-02-28T10:22:10;6.30;;;2.57;;
17991;SDS011;9121;50.926;5.340;2023-02-28T10:24:40;20.90;;;3.40;;
17991;SDS011;9121;50.926;5.340;2023-02-28T10:27:12;9.57;;;3.20;;
17991;SDS011;9121;50.926;5.340;2023-02-28T10:29:42;3.80;;;2.37;;
17991;SDS011;9121;50.926;5.340;2023-02-28T10:32:11;3.47;;;2.53;;
17991;SDS011;9121;50.926;5.340;2023-02-28T10:34:42;143.43;;;8.37;;
17991;SDS011;9121;50.926;5.340;2023-02-28T10:37:09;8.97;;;2.80;;
17991;SDS011;9121;50.926;5.340;2023-02-28T10:39:40;17.63;;;3.10;;
17991;SDS011;9121;50.926;5.340;2023-02-28T10:45:06;10.03;;;2.40;;
17991;SDS011;9121;50.926;5.340;2023-02-28T10:47:40;4.37;;;2.80;;
17991;SDS011;9121;50.926;5.340;2023-02-28T10:50:27;8.43;;;3.33;;
17991;SDS011;9121;50.926;5.340;2023-02-28T10:53:05;57.23;;;4.80;;
17991;SDS011;9121;50.926;5.340;2023-02-28T10:55:42;2.83;;;2.00;;
17991;SDS011;9121;50.926;5.340;2023-02-28T10:58:20;8.33;;;2.20;;
17991;SDS011;9121;50.926;5.340;2023-02-28T11:00:48;3.87;;;2.43;;
17991;SDS011;9121;50.926;5.340;2023-02-28T11:06:03;7.83;;;2.70;;
17991;SDS011;9121;50.926;5.340;2023-02-28T11:08:33;4.53;;;2.40;;
17991;SDS011;9121;50.926;5.340;2023-02-28T11:11:02;3.30;;;2.43;;
17991;SDS011;9121;50.926;5.340;2023-02-28T11:13:32;46.17;;;4.53;;
17991;SDS011;9121;50.926;5.340;2023-02-28T11:16:02;15.10;;;3.03;;
17991;SDS011;9121;50.926;5.340;2023-02-28T11:18:33;13.17;;;2.43;;
17991;SDS011;9121;50.926;5.340;2023-02-28T11:21:06;4.43;;;2.07;;
17991;SDS011;9121;50.926;5.340;2023-02-28T11:23:36;3.70;;;2.10;;
17991;SDS011;9121;50.926;5.340;2023-02-28T11:26:06;4.67;;;2.20;;
17991;SDS011;9121;50.926;5.340;2023-02-28T11:28:37;14.57;;;2.87;;
17991;SDS011;9121;50.926;5.340;2023-02-28T11:31:14;11.80;;;3.57;;
17991;SDS011;9121;50.926;5.340;2023-02-28T11:33:45;273.73;;;13.20;;
17991;SDS011;9121;50.926;5.340;2023-02-28T11:36:18;6.83;;;2.57;;
17991;SDS011;9121;50.926;5.340;2023-02-28T11:38:49;2.77;;;1.90;;
17991;SDS011;9121;50.926;5.340;2023-02-28T11:41:30;16.47;;;2.17;;
17991;SDS011;9121;50.926;5.340;2023-02-28T11:44:16;21.67;;;3.43;;
17991;SDS011;9121;50.926;5.340;2023-02-28T11:46:50;6.67;;;2.00;;
17991;SDS011;9121;50.926;5.340;2023-02-28T11:49:24;222.57;;;11.87;;
17991;SDS011;9121;50.926;5.340;2023-02-28T11:52:02;5.07;;;2.40;;
17991;SDS011;9121;50.926;5.340;2023-02-28T12:00:32;3.70;;;1.90;;
17991;SDS011;9121;50.926;5.340;2023-02-28T12:03:15;5.80;;;2.20;;
17991;SDS011;9121;50.926;5.340;2023-02-28T12:05:51;2.93;;;2.03;;
17991;SDS011;9121;50.926;5.340;2023-02-28T12:08:25;6.20;;;2.27;;
17991;SDS011;9121;50.926;5.340;2023-02-28T12:11:05;3.50;;;2.10;;
17991;SDS011;9121;50.926;5.340;2023-02-28T12:13:45;9.70;;;2.63;;
17991;SDS011;9121;50.926;5.340;2023-02-28T12:16:20;3.77;;;2.37;;
17991;SDS011;9121;50.926;5.340;2023-02-28T12:19:03;6.77;;;2.60;;
17991;SDS011;9121;50.926;5.340;2023-02-28T12:21:46;30.63;;;3.13;;
17991;SDS011;9121;50.926;5.340;2023-02-28T12:24:33;135.97;;;10.83;;
17991;SDS011;9121;50.926;5.340;2023-02-28T12:27:12;12.50;;;2.40;;
17991;SDS011;9121;50.926;5.340;2023-02-28T12:29:44;6.07;;;2.60;;
17991;SDS011;9121;50.926;5.340;2023-02-28T12:32:16;7.70;;;2.20;;
17991;SDS011;9121;50.926;5.340;2023-02-28T12:34:48;62.37;;;5.60;;
17991;SDS011;9121;50.926;5.340;2023-02-28T12:37:19;6.60;;;2.33;;
17991;SDS011;9121;50.926;5.340;2023-02-28T12:39:54;10.70;;;3.03;;
17991;SDS011;9121;50.926;5.340;2023-02-28T12:42:26;39.43;;;3.80;;
17991;SDS011;9121;50.926;5.340;2023-02-28T12:44:56;14.83;;;2.73;;
17991;SDS011;9121;50.926;5.340;2023-02-28T12:47:27;3.60;;;2.20;;
17991;SDS011;9121;50.926;5.340;2023-02-28T12:49:55;3.90;;;2.23;;
17991;SDS011;9121;50.926;5.340;2023-02-28T12:52:28;23.27;;;2.87;;
17991;SDS011;9121;50.926;5.340;2023-02-28T12:55:04;8.60;;;2.70;;
17991;SDS011;9121;50.926;5.340;2023-02-28T12:57:34;10.53;;;2.23;;
17991;SDS011;9121;50.926;5.340;2023-02-28T13:00:09;2.87;;;2.17;;
17991;SDS011;9121;50.926;5.340;2023-02-28T13:02:50;4.73;;;2.50;;
17991;SDS011;9121;50.926;5.340;2023-02-28T13:05:50;3.60;;;2.45;;
17991;SDS011;9121;50.926;5.340;2023-02-28T13:11:34;7.20;;;2.38;;
17991;SDS011;9121;50.926;5.340;2023-02-28T13:14:06;13.57;;;2.80;;
17991;SDS011;9121;50.926;5.340;2023-02-28T13:19:37;29.02;;;5.20;;
17991;SDS011;9121;50.926;5.340;2023-02-28T13:22:10;9.50;;;2.83;;
17991;SDS011;9121;50.926;5.340;2023-02-28T13:24:44;4.93;;;2.50;;
17991;SDS011;9121;50.926;5.340;2023-02-28T13:30:00;44.60;;;4.87;;
17991;SDS011;9121;50.926;5.340;2023-02-28T13:44:07;155.60;;;9.90;;
17991;SDS011;9121;50.926;5.340;2023-02-28T13:46:38;11.70;;;3.72;;
17991;SDS011;9121;50.926;5.340;2023-02-28T13:52:48;97.82;;;10.90;;
17991;SDS011;9121;50.926;5.340;2023-02-28T13:55:24;43.50;;;6.77;;
17991;SDS011;9121;50.926;5.340;2023-02-28T13:58:02;43.90;;;5.40;;
17991;SDS011;9121;50.926;5.340;2023-02-28T14:00:51;48.37;;;4.47;;
17991;SDS011;9121;50.926;5.340;2023-02-28T14:03:36;4.30;;;3.00;;
17991;SDS011;9121;50.926;5.340;2023-02-28T14:06:21;8.20;;;2.87;;
17991;SDS011;9121;50.926;5.340;2023-02-28T14:08:55;21.23;;;4.60;;
17991;SDS011;9121;50.926;5.340;2023-02-28T14:11:27;145.27;;;9.87;;
17991;SDS011;9121;50.926;5.340;2023-02-28T14:13:59;6.97;;;2.77;;
17991;SDS011;9121;50.926;5.340;2023-02-28T14:16:34;12.70;;;3.33;;
17991;SDS011;9121;50.926;5.340;2023-02-28T14:19:11;13.50;;;3.63;;
17991;SDS011;9121;50.926;5.340;2023-02-28T14:21:43;5.10;;;2.60;;
17991;SDS011;9121;50.926;5.340;2023-02-28T14:24:24;8.83;;;3.20;;
17991;SDS011;9121;50.926;5.340;2023-02-28T14:27:15;13.63;;;3.03;;
17991;SDS011;9121;50.926;5.340;2023-02-28T14:33:16;9.30;;;3.07;;
17991;SDS011;9121;50.926;5.340;2023-02-28T14:35:59;13.13;;;3.40;;
17991;SDS011;9121;50.926;5.340;2023-02-28T14:38:36;5.17;;;2.67;;
17991;SDS011;9121;50.926;5.340;2023-02-28T14:41:13;6.63;;;3.37;;
17991;SDS011;9121;50.926;5.340;2023-02-28T14:43:49;8.07;;;2.60;;
17991;SDS011;9121;50.926;5.340;2023-02-28T14:46:19;9.83;;;3.17;;
17991;SDS011;9121;50.926;5.340;2023-02-28T14:48:49;7.37;;;2.90;;
17991;SDS011;9121;50.926;5.340;2023-02-28T14:51:20;8.80;;;3.03;;
17991;SDS011;9121;50.926;5.340;2023-02-28T14:53:49;8.77;;;3.30;;
17991;SDS011;9121;50.926;5.340;2023-02-28T14:56:23;10.73;;;2.73;;
17991;SDS011;9121;50.926;5.340;2023-02-28T14:58:52;15.90;;;3.30;;
17991;SDS011;9121;50.926;5.340;2023-02-28T15:01:20;20.43;;;3.43;;
17991;SDS011;9121;50.926;5.340;2023-02-28T15:03:57;128.77;;;7.77;;
17991;SDS011;9121;50.926;5.340;2023-02-28T15:06:26;9.00;;;2.93;;
17991;SDS011;9121;50.926;5.340;2023-02-28T15:09:14;7.10;;;3.10;;
17991;SDS011;9121;50.926;5.340;2023-02-28T15:11:44;9.63;;;3.40;;
17991;SDS011;9121;50.926;5.340;2023-02-28T15:14:15;4.20;;;2.83;;
17991;SDS011;9121;50.926;5.340;2023-02-28T15:16:45;14.90;;;3.20;;
17991;SDS011;9121;50.926;5.340;2023-02-28T15:19:18;6.57;;;3.23;;
17991;SDS011;9121;50.926;5.340;2023-02-28T15:21:50;4.63;;;2.60;;
17991;SDS011;9121;50.926;5.340;2023-02-28T15:24:30;81.93;;;5.63;;
17991;SDS011;9121;50.926;5.340;2023-02-28T15:27:03;10.57;;;3.17;;
17991;SDS011;9121;50.926;5.340;2023-02-28T15:29:34;5.47;;;2.60;;
17991;SDS011;9121;50.926;5.340;2023-02-28T15:32:20;4.50;;;3.00;;
17991;SDS011;9121;50.926;5.340;2023-02-28T15:34:52;6.43;;;3.17;;
17991;SDS011;9121;50.926;5.340;2023-02-28T15:37:30;7.67;;;3.17;;
17991;SDS011;9121;50.926;5.340;2023-02-28T15:40:07;4.47;;;2.63;;
17991;SDS011;9121;50.926;5.340;2023-02-28T15:42:39;9.87;;;3.00;;
17991;SDS011;9121;50.926;5.340;2023-02-28T15:47:54;15.37;;;3.30;;
17991;SDS011;9121;50.926;5.340;2023-02-28T15:50:23;6.13;;;3.30;;
17991;SDS011;9121;50.926;5.340;2023-02-28T15:52:50;7.20;;;3.00;;
17991;SDS011;9121;50.926;5.340;2023-02-28T15:55:18;6.67;;;3.23;;
17991;SDS011;9121;50.926;5.340;2023-02-28T15:57:48;4.77;;;3.23;;
17991;SDS011;9121;50.926;5.340;2023-02-28T16:00:19;8.17;;;2.97;;